createdAt,value
2018-11-25T00:01:06.857Z,81.96
2018-11-25T00:03:39.605Z,81.98
2018-11-25T00:06:15.378Z,80.01
2018-11-25T00:08:47.367Z,80.24
2018-11-25T00:11:22.823Z,79.85
2018-11-25T00:13:53.344Z,79.06
2018-11-25T00:16:23.950Z,78.61
2018-11-25T00:18:54.465Z,78.96
2018-11-25T00:21:24.986Z,79.59
2018-11-25T00:23:57.755Z,78.98
2018-11-25T00:26:28.878Z,77.43
2018-11-25T00:29:01.921Z,78.11
2018-11-25T00:31:33.955Z,81.42
2018-11-25T00:34:09.414Z,81.23
2018-11-25T00:36:41.780Z,80.82
2018-11-25T00:39:12.600Z,81.02
2018-11-25T00:41:43.129Z,81.81
2018-11-25T00:44:13.674Z,81.74
2018-11-25T00:46:44.539Z,81.78
2018-11-25T00:49:17.801Z,80.65
2018-11-25T00:51:54.465Z,79.14
2018-11-25T00:54:26.698Z,85.19
2018-11-25T00:56:57.838Z,88.31
2018-11-25T00:59:32.089Z,89.39
2018-11-25T01:02:05.167Z,90.00
2018-11-25T01:04:39.734Z,90.01
2018-11-25T01:07:11.258Z,87.49
2018-11-25T01:09:45.088Z,87.51
2018-11-25T01:12:17.627Z,85.69
2018-11-25T01:14:51.979Z,82.58
2018-11-25T01:17:24.257Z,87.51
2018-11-25T01:19:54.822Z,89.14
2018-11-25T01:22:25.634Z,84.99
2018-11-25T01:24:58.729Z,82.99
2018-11-25T01:27:32.042Z,87.93
2018-11-25T01:30:07.223Z,89.44
2018-11-25T01:32:38.969Z,91.69
2018-11-25T01:37:57.777Z,93.62
2018-11-25T01:40:42.800Z,95.41
2018-11-25T01:43:15.603Z,96.26
2018-11-25T01:45:52.417Z,95.92
2018-11-25T01:48:24.912Z,95.78
2018-11-25T01:50:59.605Z,93.70
2018-11-25T01:53:35.036Z,94.90
2018-11-25T01:56:08.615Z,95.80
2018-11-25T01:58:41.011Z,96.03
2018-11-25T02:01:14.819Z,96.70
2018-11-25T02:03:48.522Z,97.20
2018-11-25T02:06:21.121Z,97.94
2018-11-25T02:08:53.601Z,97.61
2018-11-25T02:11:24.237Z,97.35
2018-11-25T02:13:55.437Z,97.30
2018-11-25T02:16:26.449Z,97.08
2018-11-25T02:18:59.181Z,96.35
2018-11-25T02:21:31.148Z,91.65
2018-11-25T02:24:04.170Z,90.94
2018-11-25T02:26:38.098Z,92.53
2018-11-25T02:29:09.185Z,94.83
2018-11-25T02:31:40.333Z,93.79
2018-11-25T02:34:12.218Z,90.60
2018-11-25T02:36:44.437Z,87.33
2018-11-25T02:39:17.453Z,85.14
2018-11-25T02:41:51.374Z,84.54
2018-11-25T02:44:24.266Z,83.95
2018-11-25T02:46:57.957Z,83.90
2018-11-25T02:49:31.271Z,86.65
2018-11-25T02:52:04.789Z,86.25
2018-11-25T02:54:37.379Z,89.37
2018-11-25T02:57:09.605Z,90.14
2018-11-25T02:59:40.993Z,87.69
2018-11-25T03:02:15.297Z,87.09
2018-11-25T03:04:48.814Z,85.44
2018-11-25T03:07:21.178Z,86.95
2018-11-25T03:09:55.161Z,90.26
2018-11-25T03:12:34.642Z,88.19
2018-11-25T03:15:06.123Z,85.09
2018-11-25T03:17:38.366Z,84.80
2018-11-25T03:20:13.604Z,82.84
2018-11-25T03:23:03.316Z,82.67
2018-11-25T03:25:36.297Z,82.62
2018-11-25T03:28:07.750Z,82.14
2018-11-25T03:30:40.297Z,81.71
2018-11-25T03:33:15.392Z,82.24
2018-11-25T03:36:03.403Z,81.70
2018-11-25T03:38:50.825Z,80.16
2018-11-25T03:41:22.698Z,81.88
2018-11-25T03:43:54.852Z,82.49
2018-11-25T03:46:25.829Z,80.19
2018-11-25T03:48:59.389Z,81.42
2018-11-25T03:51:32.463Z,81.79
2018-11-25T03:54:04.743Z,80.49
2018-11-25T03:56:37.411Z,79.82
2018-11-25T03:59:10.590Z,79.31
2018-11-25T04:01:41.975Z,79.47
2018-11-25T04:04:13.494Z,79.12
2018-11-25T04:06:46.690Z,80.48
2018-11-25T04:09:18.537Z,79.95
2018-11-25T04:11:52.618Z,79.19
2018-11-25T04:14:23.169Z,78.07
2018-11-25T04:16:56.509Z,78.10
2018-11-25T04:19:29.333Z,80.78
2018-11-25T04:21:59.994Z,83.62
2018-11-25T04:24:30.638Z,84.67
2018-11-25T04:27:03.810Z,87.89
2018-11-25T04:29:38.007Z,90.00
2018-11-25T04:32:10.775Z,91.03
2018-11-25T04:34:46.453Z,91.72
2018-11-25T04:37:17.021Z,87.45
2018-11-25T04:39:47.900Z,83.64
2018-11-25T04:42:21.142Z,80.99
2018-11-25T04:44:54.732Z,78.87
2018-11-25T04:47:27.866Z,79.20
2018-11-25T04:50:00.819Z,79.17
2018-11-25T04:52:34.002Z,78.84
2018-11-25T04:55:04.534Z,78.11
2018-11-25T04:57:37.673Z,77.06
2018-11-25T05:00:12.665Z,75.97
2018-11-25T05:02:54.205Z,75.87
2018-11-25T05:05:42.037Z,76.41
2018-11-25T05:08:13.049Z,77.96
2018-11-25T05:10:46.166Z,77.72
2018-11-25T05:13:18.872Z,76.97
2018-11-25T05:15:52.066Z,77.61
2018-11-25T05:18:22.900Z,79.32
2018-11-25T05:20:55.018Z,80.03
2018-11-25T05:23:40.654Z,81.04
2018-11-25T05:26:12.363Z,80.61
2018-11-25T05:28:45.821Z,80.92
2018-11-25T05:31:19.782Z,79.98
2018-11-25T05:33:52.854Z,81.58
2018-11-25T05:36:29.098Z,80.49
2018-11-25T05:39:02.003Z,80.24
2018-11-25T05:41:33.427Z,82.18
2018-11-25T05:44:05.953Z,82.35
2018-11-25T05:46:40.213Z,81.25
2018-11-25T05:49:12.874Z,80.55
2018-11-25T05:51:43.555Z,80.51
2018-11-25T05:54:17.033Z,81.40
2018-11-25T05:56:50.169Z,80.14
2018-11-25T05:59:37.978Z,82.31
2018-11-25T06:02:09.173Z,81.62
2018-11-25T06:04:44.967Z,81.97
2018-11-25T06:07:15.510Z,80.69
2018-11-25T06:09:45.729Z,79.74
2018-11-25T06:12:16.684Z,80.55
2018-11-25T06:14:49.206Z,81.60
2018-11-25T06:17:20.358Z,81.05
2018-11-25T06:19:53.167Z,80.69
2018-11-25T06:22:28.654Z,81.40
2018-11-25T06:24:59.352Z,81.23
2018-11-25T06:27:30.537Z,82.09
2018-11-25T06:30:04.073Z,83.87
2018-11-25T06:32:36.964Z,84.51
2018-11-25T06:35:35.447Z,84.35
2018-11-25T06:38:08.530Z,83.61
2018-11-25T06:40:41.514Z,84.07
2018-11-25T06:43:13.442Z,84.74
2018-11-25T06:45:45.194Z,86.14
2018-11-25T06:48:16.480Z,85.38
2018-11-25T06:50:48.436Z,85.41
2018-11-25T06:53:20.005Z,85.10
2018-11-25T06:55:52.566Z,84.91
2018-11-25T06:58:26.235Z,84.13
2018-11-25T07:00:59.578Z,84.52
2018-11-25T07:03:33.903Z,84.48
2018-11-25T07:06:08.619Z,84.58
2018-11-25T07:08:39.322Z,85.05
2018-11-25T07:11:12.762Z,85.59
2018-11-25T07:13:45.766Z,86.34
2018-11-25T07:16:16.447Z,85.80
2018-11-25T07:18:49.438Z,85.94
2018-11-25T07:21:22.429Z,86.11
2018-11-25T07:23:53.564Z,85.56
2018-11-25T07:26:25.653Z,85.57
2018-11-25T07:28:57.407Z,86.30
2018-11-25T07:31:27.763Z,86.36
2018-11-25T07:34:01.431Z,87.06
2018-11-25T07:36:41.397Z,87.74
2018-11-25T07:39:12.519Z,87.60
2018-11-25T07:41:44.019Z,87.83
2018-11-25T07:44:14.601Z,87.47
2018-11-25T07:46:47.549Z,87.97
2018-11-25T07:49:19.592Z,86.89
2018-11-25T07:51:52.579Z,86.60
2018-11-25T07:54:25.510Z,86.82
2018-11-25T07:56:59.854Z,86.77
2018-11-25T07:59:31.975Z,87.58
2018-11-25T08:02:02.497Z,87.66
2018-11-25T08:04:38.669Z,88.13
2018-11-25T08:07:10.818Z,88.77
2018-11-25T08:09:44.107Z,87.97
2018-11-25T08:12:15.591Z,87.95
2018-11-25T08:14:48.848Z,87.56
2018-11-25T08:17:20.291Z,86.40
2018-11-25T08:19:50.995Z,86.17
2018-11-25T08:22:23.653Z,85.33
2018-11-25T08:25:01.226Z,85.12
2018-11-25T08:27:34.996Z,85.75
2018-11-25T08:30:11.330Z,85.55
2018-11-25T08:33:01.585Z,85.83
2018-11-25T08:35:34.817Z,85.72
2018-11-25T08:38:07.702Z,84.55
2018-11-25T08:40:38.596Z,85.25
2018-11-25T08:43:09.145Z,84.60
2018-11-25T08:45:41.774Z,84.46
2018-11-25T08:48:13.050Z,84.54
2018-11-25T08:50:45.893Z,84.13
2018-11-25T08:53:18.858Z,83.34
2018-11-25T08:55:50.149Z,84.14
2018-11-25T08:58:21.927Z,84.74
2018-11-25T09:00:52.902Z,84.87
2018-11-25T09:03:25.140Z,85.07
2018-11-25T09:05:56.772Z,85.20
2018-11-25T09:08:27.435Z,85.20
2018-11-25T09:11:00.657Z,84.43
2018-11-25T09:13:31.442Z,82.82
2018-11-25T09:16:07.058Z,83.92
2018-11-25T09:18:39.066Z,84.10
2018-11-25T09:21:12.590Z,82.38
2018-11-25T09:23:44.058Z,80.65
2018-11-25T09:26:14.953Z,80.65
2018-11-25T09:28:45.609Z,82.75
2018-11-25T09:31:16.145Z,83.78
2018-11-25T09:33:50.116Z,84.90
2018-11-25T09:36:22.002Z,84.49
2018-11-25T09:38:53.343Z,84.97
2018-11-25T09:41:26.734Z,84.21
2018-11-25T09:43:59.426Z,83.49
2018-11-25T09:46:32.693Z,83.12
2018-11-25T09:49:07.682Z,83.23
2018-11-25T09:51:39.034Z,83.83
2018-11-25T09:54:11.209Z,84.23
2018-11-25T09:56:44.402Z,84.24
2018-11-25T09:59:16.291Z,83.18
2018-11-25T10:01:48.358Z,82.67
2018-11-25T10:04:18.891Z,81.94
2018-11-25T10:06:51.101Z,80.63
2018-11-25T10:09:21.921Z,79.96
2018-11-25T10:11:54.165Z,80.31
2018-11-25T10:14:25.314Z,80.21
2018-11-25T10:16:58.126Z,81.57
2018-11-25T10:19:29.403Z,81.25
2018-11-25T10:22:02.628Z,80.90
2018-11-25T10:24:35.555Z,80.75
2018-11-25T10:27:09.498Z,81.05
2018-11-25T10:29:40.090Z,80.94
2018-11-25T10:32:10.804Z,80.64
2018-11-25T10:34:49.298Z,81.09
2018-11-25T10:37:22.458Z,80.29
2018-11-25T10:39:53.022Z,80.04
2018-11-25T10:42:30.564Z,80.29
2018-11-25T10:45:04.017Z,80.74
2018-11-25T10:47:40.113Z,80.40
2018-11-25T10:50:15.818Z,79.51
2018-11-25T10:53:02.584Z,80.12
2018-11-25T10:55:35.771Z,79.81
2018-11-25T10:58:08.544Z,79.54
2018-11-25T11:00:54.426Z,79.02
2018-11-25T11:03:31.497Z,78.83
2018-11-25T11:06:09.746Z,78.82
2018-11-25T11:08:42.390Z,80.07
2018-11-25T11:11:13.574Z,79.62
2018-11-25T11:13:44.999Z,80.23
2018-11-25T11:16:16.593Z,78.93
2018-11-25T11:18:47.477Z,78.12
2018-11-25T11:21:20.442Z,78.80
2018-11-25T11:23:57.403Z,77.81
2018-11-25T11:26:30.411Z,77.87
2018-11-25T11:29:03.588Z,79.31
2018-11-25T11:31:34.911Z,79.79
2018-11-25T11:34:07.381Z,79.52
2018-11-25T11:36:40.910Z,79.15
2018-11-25T11:39:13.689Z,79.61
2018-11-25T11:41:44.875Z,79.64
2018-11-25T11:44:20.801Z,79.40
2018-11-25T11:46:51.708Z,80.57
2018-11-25T11:49:24.682Z,80.28
2018-11-25T11:51:58.738Z,79.93
2018-11-25T11:54:31.010Z,80.26
2018-11-25T11:57:02.883Z,79.05
2018-11-25T11:59:33.611Z,77.45
2018-11-25T12:02:06.384Z,76.49
2018-11-25T12:04:37.709Z,75.51
2018-11-25T12:07:09.541Z,76.16
2018-11-25T12:09:46.813Z,76.72
2018-11-25T12:12:20.038Z,76.98
2018-11-25T12:14:51.836Z,78.51
2018-11-25T12:17:25.640Z,79.72
2018-11-25T12:19:56.181Z,80.15
2018-11-25T12:22:26.430Z,80.42
2018-11-25T12:24:57.033Z,79.40
2018-11-25T12:27:30.894Z,78.79
2018-11-25T12:30:05.725Z,78.77
2018-11-25T12:32:36.846Z,78.71
2018-11-25T12:35:08.964Z,77.44
2018-11-25T12:37:41.031Z,78.50
2018-11-25T12:40:16.708Z,78.68
2018-11-25T12:43:14.613Z,78.36
2018-11-25T12:45:45.806Z,78.07
2018-11-25T12:48:31.926Z,80.48
2018-11-25T12:51:04.038Z,81.56
2018-11-25T12:53:35.842Z,80.26
2018-11-25T12:56:08.209Z,80.95
2018-11-25T12:58:41.451Z,81.86
2018-11-25T13:01:24.531Z,80.88
2018-11-25T13:03:56.625Z,80.94
2018-11-25T13:06:30.834Z,81.18
2018-11-25T13:09:04.889Z,81.69
2018-11-25T13:11:37.165Z,80.91
2018-11-25T13:14:08.155Z,80.74
2018-11-25T13:16:41.369Z,79.69
2018-11-25T13:19:13.683Z,79.69
2018-11-25T13:21:44.972Z,78.68
2018-11-25T13:24:17.709Z,80.00
2018-11-25T13:26:51.636Z,80.23
2018-11-25T13:29:22.157Z,80.71
2018-11-25T13:31:55.082Z,80.66
2018-11-25T13:34:28.097Z,80.90
2018-11-25T13:36:59.426Z,81.15
2018-11-25T13:39:32.353Z,81.39
2018-11-25T13:42:04.098Z,81.38
2018-11-25T13:44:43.204Z,81.41
2018-11-25T13:47:14.771Z,81.65
2018-11-25T13:49:51.981Z,82.12
2018-11-25T13:52:24.881Z,82.94
2018-11-25T13:54:55.162Z,81.83
2018-11-25T13:57:26.170Z,82.43
2018-11-25T13:59:57.069Z,82.89
2018-11-25T14:02:30.030Z,82.73
2018-11-25T14:05:03.632Z,83.19
2018-11-25T14:07:36.121Z,83.24
2018-11-25T14:10:13.658Z,82.96
2018-11-25T14:12:54.376Z,82.39
2018-11-25T14:15:27.827Z,82.27
2018-11-25T14:17:59.143Z,81.84
2018-11-25T14:20:29.450Z,80.94
2018-11-25T14:23:00.167Z,80.43
2018-11-25T14:25:34.758Z,81.09
2018-11-25T14:28:09.837Z,80.78
2018-11-25T14:30:41.549Z,79.99
2018-11-25T14:33:13.356Z,78.52
2018-11-25T14:35:53.679Z,75.92
2018-11-25T14:38:27.125Z,75.00
2018-11-25T14:41:00.717Z,73.88
2018-11-25T14:43:33.602Z,72.60
2018-11-25T14:46:03.964Z,71.87
2018-11-25T14:48:34.501Z,70.78
2018-11-25T14:51:07.712Z,71.99
2018-11-25T14:53:38.535Z,71.99
2018-11-25T14:56:11.327Z,73.18
2018-11-25T14:58:46.539Z,72.38
2018-11-25T15:01:20.826Z,71.77
2018-11-25T15:03:53.375Z,71.35
2018-11-25T15:06:29.483Z,71.63
2018-11-25T15:09:06.559Z,71.07
2018-11-25T15:11:37.808Z,70.65
2018-11-25T15:14:08.989Z,69.96
2018-11-25T15:16:41.527Z,70.23
2018-11-25T15:19:13.687Z,71.10
2018-11-25T15:21:49.415Z,70.12
2018-11-25T15:24:27.859Z,69.43
2018-11-25T15:27:00.742Z,70.26
2018-11-25T15:29:33.695Z,69.72
2018-11-25T15:32:05.332Z,68.82
2018-11-25T15:34:43.453Z,68.38
2018-11-25T15:37:14.008Z,68.80
2018-11-25T15:39:44.986Z,68.70
2018-11-25T15:42:16.789Z,69.26
2018-11-25T15:44:47.641Z,69.44
2018-11-25T15:47:22.808Z,69.40
2018-11-25T15:49:55.014Z,69.25
2018-11-25T15:52:28.017Z,69.13
2018-11-25T15:54:58.257Z,69.45
2018-11-25T15:57:29.009Z,69.68
2018-11-25T16:00:02.036Z,68.81
2018-11-25T16:02:35.026Z,68.93
2018-11-25T16:05:07.769Z,68.75
2018-11-25T16:07:39.822Z,68.53
2018-11-25T16:10:13.917Z,70.45
2018-11-25T16:12:57.255Z,71.31
2018-11-25T16:15:36.741Z,72.16
2018-11-25T16:18:10.092Z,75.75
2018-11-25T16:20:42.517Z,77.08
2018-11-25T16:23:13.691Z,76.50
2018-11-25T16:25:54.968Z,75.95
2018-11-25T16:28:34.714Z,77.99
2018-11-25T16:31:18.652Z,79.41
2018-11-25T16:33:51.129Z,81.33
2018-11-25T16:36:24.966Z,80.85
2018-11-25T16:39:02.172Z,81.08
2018-11-25T16:41:34.089Z,80.88
2018-11-25T16:44:04.669Z,81.54
2018-11-25T16:46:35.273Z,79.92
2018-11-25T16:49:08.993Z,81.58
2018-11-25T16:51:41.394Z,82.91
2018-11-25T16:54:14.032Z,83.42
2018-11-25T16:56:44.772Z,83.14
2018-11-25T16:59:16.963Z,82.99
2018-11-25T17:01:51.913Z,82.12
2018-11-25T17:04:22.638Z,82.39
2018-11-25T17:07:04.235Z,82.46
2018-11-25T17:09:35.375Z,82.59
2018-11-25T17:12:08.395Z,82.87
2018-11-25T17:14:39.254Z,85.03
2018-11-25T17:17:13.173Z,85.83
2018-11-25T17:19:45.344Z,87.15
2018-11-25T17:22:20.109Z,87.37
2018-11-25T17:25:01.303Z,86.45
2018-11-25T17:27:35.538Z,85.42
2018-11-25T17:30:14.674Z,84.39
2018-11-25T17:32:49.205Z,83.91
2018-11-25T17:35:28.279Z,84.97
2018-11-25T17:38:01.898Z,86.01
2018-11-25T17:40:36.484Z,85.41
2018-11-25T17:43:09.757Z,83.87
2018-11-25T17:45:40.379Z,84.46
2018-11-25T17:48:11.300Z,86.60
2018-11-25T17:50:47.140Z,86.00
2018-11-25T17:53:20.841Z,85.23
2018-11-25T17:55:51.591Z,85.37
2018-11-25T17:58:22.362Z,84.60
2018-11-25T18:01:00.185Z,85.50
2018-11-25T18:03:32.517Z,86.60
2018-11-25T18:06:06.312Z,86.76
2018-11-25T18:08:38.494Z,87.36
2018-11-25T18:11:12.534Z,87.71
2018-11-25T18:13:45.280Z,88.25
2018-11-25T18:16:18.269Z,87.76
2018-11-25T18:18:52.303Z,87.67
2018-11-25T18:21:26.073Z,86.68
2018-11-25T18:24:01.510Z,85.69
2018-11-25T18:26:34.754Z,83.84
2018-11-25T18:29:05.970Z,84.66
2018-11-25T18:31:38.457Z,84.44
2018-11-25T18:34:17.996Z,85.79
2018-11-25T18:36:50.512Z,85.29
2018-11-25T18:39:21.523Z,86.71
2018-11-25T18:41:56.387Z,88.00
2018-11-25T18:44:29.002Z,85.16
2018-11-25T18:47:00.893Z,83.35
2018-11-25T18:49:32.008Z,84.22
2018-11-25T18:52:05.319Z,85.41
2018-11-25T18:54:45.682Z,86.01
2018-11-25T18:57:20.490Z,86.36
2018-11-25T18:59:55.282Z,87.64
2018-11-25T19:02:35.115Z,87.94
2018-11-25T19:05:08.658Z,88.83
2018-11-25T19:07:40.334Z,86.35
2018-11-25T19:10:23.503Z,86.81
2018-11-25T19:12:58.754Z,86.03
2018-11-25T19:15:34.757Z,85.43
2018-11-25T19:20:46.069Z,87.08
2018-11-25T19:23:19.166Z,86.32
2018-11-25T19:26:00.668Z,86.29
2018-11-25T19:28:33.508Z,86.38
2018-11-25T19:31:12.869Z,87.44
2018-11-25T19:33:44.082Z,86.12
2018-11-25T19:36:14.976Z,87.24
2018-11-25T19:38:47.602Z,86.75
2018-11-25T19:41:20.754Z,87.51
2018-11-25T19:43:52.043Z,87.79
2018-11-25T19:46:24.939Z,88.41
2018-11-25T19:48:59.278Z,88.71
2018-11-25T19:51:35.190Z,89.66
2018-11-25T19:54:11.521Z,90.43
2018-11-25T19:56:52.948Z,89.79
2018-11-25T19:59:25.933Z,89.61
2018-11-25T20:01:57.065Z,90.59
2018-11-25T20:04:29.204Z,90.17
2018-11-25T20:07:01.236Z,91.14
2018-11-25T20:09:34.706Z,89.54
2018-11-25T20:12:06.962Z,87.92
2018-11-25T20:14:39.364Z,88.64
2018-11-25T20:17:17.717Z,88.51
2018-11-25T20:19:51.042Z,88.97
2018-11-25T20:22:25.548Z,88.78
2018-11-25T20:24:58.322Z,89.14
2018-11-25T20:27:34.506Z,88.60
2018-11-25T20:30:13.828Z,89.22
2018-11-25T20:33:02.272Z,89.61
2018-11-25T20:35:34.152Z,88.85
2018-11-25T20:38:30.831Z,90.23
2018-11-25T20:41:04.146Z,90.53
2018-11-25T20:43:38.022Z,90.48
2018-11-25T20:46:14.771Z,91.31
2018-11-25T20:48:52.233Z,90.82
2018-11-25T20:51:28.424Z,90.62
2018-11-25T20:54:00.241Z,91.00
2018-11-25T20:56:32.083Z,91.16
2018-11-25T20:59:03.182Z,91.34
2018-11-25T21:01:36.173Z,91.81
2018-11-25T21:04:09.260Z,91.54
2018-11-25T21:06:42.604Z,91.35
2018-11-25T21:09:13.274Z,90.13
2018-11-25T21:11:46.081Z,90.61
2018-11-25T21:14:17.143Z,90.77
2018-11-25T21:16:50.200Z,90.85
2018-11-25T21:19:27.242Z,90.75
2018-11-25T21:21:59.568Z,90.58
2018-11-25T21:24:30.479Z,90.60
2018-11-25T21:27:03.409Z,89.65
2018-11-25T21:29:34.590Z,89.62
2018-11-25T21:32:07.454Z,88.80
2018-11-25T21:34:40.384Z,88.88
2018-11-25T21:37:13.370Z,89.12
2018-11-25T21:39:46.519Z,90.74
2018-11-25T21:42:17.688Z,90.61
2018-11-25T21:44:52.176Z,91.14
2018-11-25T21:47:24.413Z,92.18
2018-11-25T21:49:57.386Z,92.69
2018-11-25T21:52:31.149Z,92.15
2018-11-25T21:55:04.836Z,92.70
2018-11-25T21:57:38.514Z,92.59
2018-11-25T22:00:31.329Z,92.51
2018-11-25T22:03:02.373Z,92.79
2018-11-25T22:05:36.158Z,92.68
2018-11-25T22:08:08.736Z,92.18
2018-11-25T22:10:42.649Z,92.03
2018-11-25T22:13:17.214Z,92.03
2018-11-25T22:15:48.474Z,91.67
2018-11-25T22:18:20.526Z,92.37
2018-11-25T22:20:52.564Z,92.47
2018-11-25T22:23:23.294Z,92.31
2018-11-25T22:26:05.241Z,93.31
2018-11-25T22:28:40.109Z,92.93
2018-11-25T22:31:12.483Z,91.23
2018-11-25T22:33:49.379Z,91.82
2018-11-25T22:36:21.647Z,92.02
2018-11-25T22:38:53.153Z,92.42
2018-11-25T22:41:26.001Z,92.80
2018-11-25T22:43:56.517Z,92.39
2018-11-25T22:46:27.694Z,93.04
2018-11-25T22:49:00.057Z,93.64
2018-11-25T22:51:30.770Z,92.95
2018-11-25T22:54:05.886Z,93.25
2018-11-25T22:56:38.595Z,93.35
2018-11-25T22:59:10.908Z,93.42
2018-11-25T23:01:43.776Z,93.51
2018-11-25T23:04:25.712Z,93.55
2018-11-25T23:07:03.064Z,93.80
2018-11-25T23:09:33.660Z,94.30
2018-11-25T23:12:07.093Z,94.23
2018-11-25T23:14:39.091Z,93.78
2018-11-25T23:17:11.073Z,93.91
2018-11-25T23:19:41.789Z,93.82
2018-11-25T23:22:17.745Z,94.14
2018-11-25T23:24:48.270Z,94.54
2018-11-25T23:27:18.900Z,93.99
2018-11-25T23:29:52.033Z,93.97
2018-11-25T23:32:25.006Z,94.71
2018-11-25T23:34:56.672Z,95.06
2018-11-25T23:37:32.842Z,94.53
2018-11-25T23:40:05.818Z,94.24
2018-11-25T23:42:38.814Z,93.95
2018-11-25T23:45:13.905Z,94.14
2018-11-25T23:47:56.766Z,94.77
2018-11-25T23:50:31.596Z,93.95
2018-11-25T23:53:07.202Z,93.82
2018-11-25T23:55:39.816Z,93.86
2018-11-25T23:58:13.949Z,94.30
